Terminal Aerodrome Forecast
Issued by NWS

Home | Current Version | Previous Version | Text Only | Print | Product List | Glossary On
Versions: 1 2 3 4 5 6 7 8 9 10 11 12 13 14 15 16 17
000
FTUS45 KTFX 231444 AAB
TAFGTF
TAF AMD
KGTF 231444Z 2315/2412 VRB05KT P6SM FEW007
      TEMPO 2315/2316 2SM BR BKN004
     FM231600 VRB05KT P6SM FEW020 SCT070
     FM232200 VRB03KT P6SM FEW025 SCT070=

USA.gov is the U.S. government's official web portal to all federal, state and local government web resources and services.